sensor_id;sensor_type;location;lat;lon;timestamp;temperature;humidity
81192;DHT22;70665;47.652;-2.730;2024-03-17T00:02:20;14.30;99.90
81192;DHT22;70665;47.652;-2.730;2024-03-17T00:04:46;14.20;99.90
81192;DHT22;70665;47.652;-2.730;2024-03-17T00:07:12;14.20;99.90
81192;DHT22;70665;47.652;-2.730;2024-03-17T00:09:38;14.20;99.90
81192;DHT22;70665;47.652;-2.730;2024-03-17T00:12:04;14.30;99.90
81192;DHT22;70665;47.652;-2.730;2024-03-17T00:14:30;14.30;99.90
81192;DHT22;70665;47.652;-2.730;2024-03-17T00:16:56;14.40;99.90
81192;DHT22;70665;47.652;-2.730;2024-03-17T00:19:23;14.30;99.90
81192;DHT22;70665;47.652;-2.730;2024-03-17T00:21:49;14.30;99.90
81192;DHT22;70665;47.652;-2.730;2024-03-17T00:24:19;14.30;99.90
81192;DHT22;70665;47.652;-2.730;2024-03-17T00:26:48;14.30;99.90
81192;DHT22;70665;47.652;-2.730;2024-03-17T00:29:17;14.20;99.90
81192;DHT22;70665;47.652;-2.730;2024-03-17T00:31:43;14.20;99.90
81192;DHT22;70665;47.652;-2.730;2024-03-17T00:34:08;14.30;99.90
81192;DHT22;70665;47.652;-2.730;2024-03-17T00:36:34;14.30;99.90
81192;DHT22;70665;47.652;-2.730;2024-03-17T00:39:00;14.30;99.90
81192;DHT22;70665;47.652;-2.730;2024-03-17T00:41:26;14.20;99.90
81192;DHT22;70665;47.652;-2.730;2024-03-17T00:43:52;14.30;99.90
81192;DHT22;70665;47.652;-2.730;2024-03-17T00:46:20;14.40;99.90
81192;DHT22;70665;47.652;-2.730;2024-03-17T00:48:48;14.30;99.90
81192;DHT22;70665;47.652;-2.730;2024-03-17T00:51:14;14.20;99.90
81192;DHT22;70665;47.652;-2.730;2024-03-17T00:53:40;14.10;99.90
81192;DHT22;70665;47.652;-2.730;2024-03-17T00:56:05;14.20;99.90
81192;DHT22;70665;47.652;-2.730;2024-03-17T00:58:32;14.30;99.90
81192;DHT22;70665;47.652;-2.730;2024-03-17T01:00:57;14.10;99.90
81192;DHT22;70665;47.652;-2.730;2024-03-17T01:03:23;14.20;99.90
81192;DHT22;70665;47.652;-2.730;2024-03-17T01:05:49;14.20;99.90
81192;DHT22;70665;47.652;-2.730;2024-03-17T01:08:20;14.20;99.90
81192;DHT22;70665;47.652;-2.730;2024-03-17T01:10:47;14.10;99.90
81192;DHT22;70665;47.652;-2.730;2024-03-17T01:13:15;14.10;99.90
81192;DHT22;70665;47.652;-2.730;2024-03-17T01:15:41;14.10;99.90
81192;DHT22;70665;47.652;-2.730;2024-03-17T01:18:07;14.20;99.90
81192;DHT22;70665;47.652;-2.730;2024-03-17T01:20:35;14.10;99.90
81192;DHT22;70665;47.652;-2.730;2024-03-17T01:23:01;14.10;99.90
81192;DHT22;70665;47.652;-2.730;2024-03-17T01:25:27;14.10;99.90
81192;DHT22;70665;47.652;-2.730;2024-03-17T01:27:55;14.20;99.90
81192;DHT22;70665;47.652;-2.730;2024-03-17T01:30:20;14.10;99.90
81192;DHT22;70665;47.652;-2.730;2024-03-17T01:32:46;14.10;99.90
81192;DHT22;70665;47.652;-2.730;2024-03-17T01:35:12;14.10;99.90
81192;DHT22;70665;47.652;-2.730;2024-03-17T01:37:39;14.00;99.90
81192;DHT22;70665;47.652;-2.730;2024-03-17T01:40:05;14.00;99.90
81192;DHT22;70665;47.652;-2.730;2024-03-17T01:42:36;14.00;99.90
81192;DHT22;70665;47.652;-2.730;2024-03-17T01:45:25;14.00;99.90
81192;DHT22;70665;47.652;-2.730;2024-03-17T01:47:52;14.00;99.90
81192;DHT22;70665;47.652;-2.730;2024-03-17T01:50:18;14.10;99.90
81192;DHT22;70665;47.652;-2.730;2024-03-17T01:52:57;14.10;99.90
81192;DHT22;70665;47.652;-2.730;2024-03-17T01:55:26;14.00;99.90
81192;DHT22;70665;47.652;-2.730;2024-03-17T01:57:53;14.00;99.90
81192;DHT22;70665;47.652;-2.730;2024-03-17T02:00:19;14.00;99.90
81192;DHT22;70665;47.652;-2.730;2024-03-17T02:02:44;13.90;99.90
81192;DHT22;70665;47.652;-2.730;2024-03-17T02:05:10;13.90;99.90
81192;DHT22;70665;47.652;-2.730;2024-03-17T02:07:36;14.00;99.90
81192;DHT22;70665;47.652;-2.730;2024-03-17T02:10:01;13.90;99.90
81192;DHT22;70665;47.652;-2.730;2024-03-17T02:12:30;13.90;99.90
81192;DHT22;70665;47.652;-2.730;2024-03-17T02:14:57;13.90;99.90
81192;DHT22;70665;47.652;-2.730;2024-03-17T02:17:23;13.90;99.90
81192;DHT22;70665;47.652;-2.730;2024-03-17T02:19:51;13.80;99.90
81192;DHT22;70665;47.652;-2.730;2024-03-17T02:22:17;13.90;99.90
81192;DHT22;70665;47.652;-2.730;2024-03-17T02:24:43;13.80;99.90
81192;DHT22;70665;47.652;-2.730;2024-03-17T02:27:09;13.90;99.90
81192;DHT22;70665;47.652;-2.730;2024-03-17T02:29:35;13.90;99.90
81192;DHT22;70665;47.652;-2.730;2024-03-17T02:32:08;13.80;99.90
81192;DHT22;70665;47.652;-2.730;2024-03-17T02:34:37;13.90;99.90
81192;DHT22;70665;47.652;-2.730;2024-03-17T02:37:04;13.90;99.90
81192;DHT22;70665;47.652;-2.730;2024-03-17T02:39:31;13.80;99.90
81192;DHT22;70665;47.652;-2.730;2024-03-17T02:42:10;13.90;99.90
81192;DHT22;70665;47.652;-2.730;2024-03-17T02:44:37;13.90;99.90
81192;DHT22;70665;47.652;-2.730;2024-03-17T02:47:04;13.90;99.90
81192;DHT22;70665;47.652;-2.730;2024-03-17T02:49:31;13.90;99.90
81192;DHT22;70665;47.652;-2.730;2024-03-17T02:52:08;13.90;99.90
81192;DHT22;70665;47.652;-2.730;2024-03-17T02:54:38;13.90;99.90
81192;DHT22;70665;47.652;-2.730;2024-03-17T02:57:05;13.80;99.90
81192;DHT22;70665;47.652;-2.730;2024-03-17T02:59:32;13.90;99.90
81192;DHT22;70665;47.652;-2.730;2024-03-17T03:01:59;14.00;99.90
81192;DHT22;70665;47.652;-2.730;2024-03-17T03:04:25;14.00;99.90
81192;DHT22;70665;47.652;-2.730;2024-03-17T03:06:51;13.80;99.90
81192;DHT22;70665;47.652;-2.730;2024-03-17T03:09:16;14.00;99.90
81192;DHT22;70665;47.652;-2.730;2024-03-17T03:11:51;14.00;99.90
81192;DHT22;70665;47.652;-2.730;2024-03-17T03:14:17;13.90;99.90
81192;DHT22;70665;47.652;-2.730;2024-03-17T03:16:43;14.00;99.90
81192;DHT22;70665;47.652;-2.730;2024-03-17T03:19:09;13.90;99.90
81192;DHT22;70665;47.652;-2.730;2024-03-17T03:21:34;13.90;99.90
81192;DHT22;70665;47.652;-2.730;2024-03-17T03:24:00;13.90;99.90
81192;DHT22;70665;47.652;-2.730;2024-03-17T03:26:25;13.90;99.90
81192;DHT22;70665;47.652;-2.730;2024-03-17T03:28:51;13.90;99.90
81192;DHT22;70665;47.652;-2.730;2024-03-17T03:31:17;13.90;99.90
81192;DHT22;70665;47.652;-2.730;2024-03-17T03:33:43;13.90;99.90
81192;DHT22;70665;47.652;-2.730;2024-03-17T03:36:10;13.80;99.90
81192;DHT22;70665;47.652;-2.730;2024-03-17T03:38:36;13.80;99.90
81192;DHT22;70665;47.652;-2.730;2024-03-17T03:41:29;13.80;99.90
81192;DHT22;70665;47.652;-2.730;2024-03-17T03:43:54;13.80;99.90
81192;DHT22;70665;47.652;-2.730;2024-03-17T03:46:20;13.80;99.90
81192;DHT22;70665;47.652;-2.730;2024-03-17T03:48:46;13.90;99.90
81192;DHT22;70665;47.652;-2.730;2024-03-17T03:51:11;13.90;99.90
81192;DHT22;70665;47.652;-2.730;2024-03-17T03:53:37;13.80;99.90
81192;DHT22;70665;47.652;-2.730;2024-03-17T03:56:04;13.80;99.90
81192;DHT22;70665;47.652;-2.730;2024-03-17T03:58:35;13.80;99.90
81192;DHT22;70665;47.652;-2.730;2024-03-17T04:01:05;13.80;99.90
81192;DHT22;70665;47.652;-2.730;2024-03-17T04:03:32;13.70;99.90
81192;DHT22;70665;47.652;-2.730;2024-03-17T04:06:06;13.80;99.90
81192;DHT22;70665;47.652;-2.730;2024-03-17T04:08:33;13.80;99.90
81192;DHT22;70665;47.652;-2.730;2024-03-17T04:10:59;13.80;99.90
81192;DHT22;70665;47.652;-2.730;2024-03-17T04:13:26;13.80;99.90
81192;DHT22;70665;47.652;-2.730;2024-03-17T04:15:52;13.80;99.90
81192;DHT22;70665;47.652;-2.730;2024-03-17T04:18:25;13.80;99.90
81192;DHT22;70665;47.652;-2.730;2024-03-17T04:20:55;13.80;99.90
81192;DHT22;70665;47.652;-2.730;2024-03-17T04:23:21;13.70;99.90
81192;DHT22;70665;47.652;-2.730;2024-03-17T04:25:47;13.80;99.90
81192;DHT22;70665;47.652;-2.730;2024-03-17T04:28:14;13.80;99.90
81192;DHT22;70665;47.652;-2.730;2024-03-17T04:30:40;13.80;99.90
81192;DHT22;70665;47.652;-2.730;2024-03-17T04:33:05;13.80;99.90
81192;DHT22;70665;47.652;-2.730;2024-03-17T04:35:36;13.70;99.90
81192;DHT22;70665;47.652;-2.730;2024-03-17T04:38:01;13.80;99.90
81192;DHT22;70665;47.652;-2.730;2024-03-17T04:40:27;13.80;99.90
81192;DHT22;70665;47.652;-2.730;2024-03-17T04:42:53;13.80;99.90
81192;DHT22;70665;47.652;-2.730;2024-03-17T04:45:18;13.70;99.90
81192;DHT22;70665;47.652;-2.730;2024-03-17T04:47:44;13.70;99.90
81192;DHT22;70665;47.652;-2.730;2024-03-17T04:50:09;13.70;99.90
81192;DHT22;70665;47.652;-2.730;2024-03-17T04:52:35;13.70;99.90
81192;DHT22;70665;47.652;-2.730;2024-03-17T04:55:01;13.80;99.90
81192;DHT22;70665;47.652;-2.730;2024-03-17T04:57:26;13.70;99.90
81192;DHT22;70665;47.652;-2.730;2024-03-17T04:59:52;13.80;99.90
81192;DHT22;70665;47.652;-2.730;2024-03-17T05:02:17;13.80;99.90
81192;DHT22;70665;47.652;-2.730;2024-03-17T05:04:43;13.80;99.90
81192;DHT22;70665;47.652;-2.730;2024-03-17T05:07:08;13.80;99.90
81192;DHT22;70665;47.652;-2.730;2024-03-17T05:09:34;13.80;99.90
81192;DHT22;70665;47.652;-2.730;2024-03-17T05:12:00;13.70;99.90
81192;DHT22;70665;47.652;-2.730;2024-03-17T05:14:26;13.90;99.90
81192;DHT22;70665;47.652;-2.730;2024-03-17T05:16:52;13.80;99.90
81192;DHT22;70665;47.652;-2.730;2024-03-17T05:19:17;13.80;99.90
81192;DHT22;70665;47.652;-2.730;2024-03-17T05:21:44;13.80;99.90
81192;DHT22;70665;47.652;-2.730;2024-03-17T05:24:10;13.90;99.90
81192;DHT22;70665;47.652;-2.730;2024-03-17T05:26:37;13.90;99.90
81192;DHT22;70665;47.652;-2.730;2024-03-17T05:29:02;13.80;99.90
81192;DHT22;70665;47.652;-2.730;2024-03-17T05:31:29;13.80;99.90
81192;DHT22;70665;47.652;-2.730;2024-03-17T05:33:56;13.90;99.90
81192;DHT22;70665;47.652;-2.730;2024-03-17T05:36:22;13.80;99.90
81192;DHT22;70665;47.652;-2.730;2024-03-17T05:38:48;13.90;99.90
81192;DHT22;70665;47.652;-2.730;2024-03-17T05:41:14;13.90;99.90
81192;DHT22;70665;47.652;-2.730;2024-03-17T05:43:39;13.90;99.90
81192;DHT22;70665;47.652;-2.730;2024-03-17T05:46:09;13.90;99.90
81192;DHT22;70665;47.652;-2.730;2024-03-17T05:48:36;14.00;99.90
81192;DHT22;70665;47.652;-2.730;2024-03-17T05:51:07;14.00;99.90
81192;DHT22;70665;47.652;-2.730;2024-03-17T05:53:33;14.00;99.90
81192;DHT22;70665;47.652;-2.730;2024-03-17T05:55:59;13.90;99.90
81192;DHT22;70665;47.652;-2.730;2024-03-17T05:58:25;13.90;99.90
81192;DHT22;70665;47.652;-2.730;2024-03-17T06:00:51;14.00;99.90
81192;DHT22;70665;47.652;-2.730;2024-03-17T06:03:16;14.00;99.90
81192;DHT22;70665;47.652;-2.730;2024-03-17T06:05:43;14.00;99.90
81192;DHT22;70665;47.652;-2.730;2024-03-17T06:08:10;14.00;99.90
81192;DHT22;70665;47.652;-2.730;2024-03-17T06:10:37;14.00;99.90
81192;DHT22;70665;47.652;-2.730;2024-03-17T06:13:03;14.10;99.90
81192;DHT22;70665;47.652;-2.730;2024-03-17T06:15:29;14.10;99.90
81192;DHT22;70665;47.652;-2.730;2024-03-17T06:17:55;14.10;99.90
81192;DHT22;70665;47.652;-2.730;2024-03-17T06:20:22;14.10;99.90
81192;DHT22;70665;47.652;-2.730;2024-03-17T06:22:49;14.10;99.90
81192;DHT22;70665;47.652;-2.730;2024-03-17T06:25:14;14.10;99.90
81192;DHT22;70665;47.652;-2.730;2024-03-17T06:27:40;14.10;99.90
81192;DHT22;70665;47.652;-2.730;2024-03-17T06:30:06;14.10;99.90
81192;DHT22;70665;47.652;-2.730;2024-03-17T06:32:32;14.20;99.90
81192;DHT22;70665;47.652;-2.730;2024-03-17T06:35:01;14.10;99.90
81192;DHT22;70665;47.652;-2.730;2024-03-17T06:37:27;14.10;99.90
81192;DHT22;70665;47.652;-2.730;2024-03-17T06:39:53;14.20;99.90
81192;DHT22;70665;47.652;-2.730;2024-03-17T06:42:19;14.20;99.90
81192;DHT22;70665;47.652;-2.730;2024-03-17T06:44:44;14.30;99.90
81192;DHT22;70665;47.652;-2.730;2024-03-17T06:47:10;14.20;99.90
81192;DHT22;70665;47.652;-2.730;2024-03-17T06:49:36;14.20;99.90
81192;DHT22;70665;47.652;-2.730;2024-03-17T06:52:01;14.20;99.90
81192;DHT22;70665;47.652;-2.730;2024-03-17T06:54:27;14.20;99.90
81192;DHT22;70665;47.652;-2.730;2024-03-17T06:56:53;14.20;99.90
81192;DHT22;70665;47.652;-2.730;2024-03-17T06:59:19;14.30;99.90
81192;DHT22;70665;47.652;-2.730;2024-03-17T07:01:46;14.30;99.90
81192;DHT22;70665;47.652;-2.730;2024-03-17T07:04:12;14.30;99.90
81192;DHT22;70665;47.652;-2.730;2024-03-17T07:06:38;14.30;99.90
81192;DHT22;70665;47.652;-2.730;2024-03-17T07:09:04;14.40;99.90
81192;DHT22;70665;47.652;-2.730;2024-03-17T07:11:29;14.30;99.90
81192;DHT22;70665;47.652;-2.730;2024-03-17T07:13:55;14.40;99.90
81192;DHT22;70665;47.652;-2.730;2024-03-17T07:16:20;14.50;99.90
81192;DHT22;70665;47.652;-2.730;2024-03-17T07:18:52;14.40;99.90
81192;DHT22;70665;47.652;-2.730;2024-03-17T07:21:18;14.40;99.90
81192;DHT22;70665;47.652;-2.730;2024-03-17T07:23:44;14.40;99.90
81192;DHT22;70665;47.652;-2.730;2024-03-17T07:26:10;14.40;99.90
81192;DHT22;70665;47.652;-2.730;2024-03-17T07:28:35;14.40;99.90
81192;DHT22;70665;47.652;-2.730;2024-03-17T07:31:06;14.50;99.90
81192;DHT22;70665;47.652;-2.730;2024-03-17T07:33:34;14.50;99.90
81192;DHT22;70665;47.652;-2.730;2024-03-17T07:35:59;14.40;99.90
81192;DHT22;70665;47.652;-2.730;2024-03-17T07:38:27;14.50;99.90
81192;DHT22;70665;47.652;-2.730;2024-03-17T07:41:04;14.40;99.90
81192;DHT22;70665;47.652;-2.730;2024-03-17T07:43:34;14.50;99.90
81192;DHT22;70665;47.652;-2.730;2024-03-17T07:46:07;14.60;99.90
81192;DHT22;70665;47.652;-2.730;2024-03-17T07:48:37;14.70;99.90
81192;DHT22;70665;47.652;-2.730;2024-03-17T07:51:07;14.60;99.90
81192;DHT22;70665;47.652;-2.730;2024-03-17T07:53:35;14.60;99.90
81192;DHT22;70665;47.652;-2.730;2024-03-17T07:56:04;14.60;99.90
81192;DHT22;70665;47.652;-2.730;2024-03-17T07:58:32;14.70;99.90
81192;DHT22;70665;47.652;-2.730;2024-03-17T08:01:02;14.70;99.90
81192;DHT22;70665;47.652;-2.730;2024-03-17T08:03:28;14.70;99.90
81192;DHT22;70665;47.652;-2.730;2024-03-17T08:05:54;14.90;99.90
81192;DHT22;70665;47.652;-2.730;2024-03-17T08:08:20;15.00;99.90
81192;DHT22;70665;47.652;-2.730;2024-03-17T08:10:46;15.10;99.90
81192;DHT22;70665;47.652;-2.730;2024-03-17T08:13:14;15.20;99.90
81192;DHT22;70665;47.652;-2.730;2024-03-17T08:15:44;15.20;99.90
81192;DHT22;70665;47.652;-2.730;2024-03-17T08:18:11;15.30;99.90
81192;DHT22;70665;47.652;-2.730;2024-03-17T08:20:41;15.40;99.90
81192;DHT22;70665;47.652;-2.730;2024-03-17T08:23:08;15.50;99.90
81192;DHT22;70665;47.652;-2.730;2024-03-17T08:25:34;15.50;99.90
81192;DHT22;70665;47.652;-2.730;2024-03-17T08:28:00;15.60;99.90
81192;DHT22;70665;47.652;-2.730;2024-03-17T08:30:26;15.60;99.90
81192;DHT22;70665;47.652;-2.730;2024-03-17T08:32:52;15.60;99.90
81192;DHT22;70665;47.652;-2.730;2024-03-17T08:35:17;15.70;99.90
81192;DHT22;70665;47.652;-2.730;2024-03-17T08:37:43;16.00;99.90
81192;DHT22;70665;47.652;-2.730;2024-03-17T08:40:11;16.20;99.90
81192;DHT22;70665;47.652;-2.730;2024-03-17T08:42:37;16.10;99.90
81192;DHT22;70665;47.652;-2.730;2024-03-17T08:45:03;16.00;99.90
81192;DHT22;70665;47.652;-2.730;2024-03-17T08:47:29;15.90;99.90
81192;DHT22;70665;47.652;-2.730;2024-03-17T08:49:55;15.80;99.90
81192;DHT22;70665;47.652;-2.730;2024-03-17T08:52:20;15.80;99.90
81192;DHT22;70665;47.652;-2.730;2024-03-17T08:54:49;15.80;99.90
81192;DHT22;70665;47.652;-2.730;2024-03-17T08:57:17;15.90;99.90
81192;DHT22;70665;47.652;-2.730;2024-03-17T08:59:46;15.80;99.90
81192;DHT22;70665;47.652;-2.730;2024-03-17T09:02:13;16.00;99.90
81192;DHT22;70665;47.652;-2.730;2024-03-17T09:04:41;16.10;99.90
81192;DHT22;70665;47.652;-2.730;2024-03-17T09:07:06;16.20;99.90
81192;DHT22;70665;47.652;-2.730;2024-03-17T09:09:32;16.40;99.90
81192;DHT22;70665;47.652;-2.730;2024-03-17T09:11:58;16.50;99.90
81192;DHT22;70665;47.652;-2.730;2024-03-17T09:14:24;16.80;99.90
81192;DHT22;70665;47.652;-2.730;2024-03-17T09:16:49;16.80;99.90
81192;DHT22;70665;47.652;-2.730;2024-03-17T09:19:15;16.70;99.90
81192;DHT22;70665;47.652;-2.730;2024-03-17T09:21:41;16.70;99.90
81192;DHT22;70665;47.652;-2.730;2024-03-17T09:24:07;16.50;99.90
81192;DHT22;70665;47.652;-2.730;2024-03-17T09:26:36;16.50;99.90
81192;DHT22;70665;47.652;-2.730;2024-03-17T09:29:05;16.60;99.90
81192;DHT22;70665;47.652;-2.730;2024-03-17T09:31:30;16.90;99.90
81192;DHT22;70665;47.652;-2.730;2024-03-17T09:33:59;17.00;99.90
81192;DHT22;70665;47.652;-2.730;2024-03-17T09:36:24;17.00;99.90
81192;DHT22;70665;47.652;-2.730;2024-03-17T09:38:51;16.70;99.90
81192;DHT22;70665;47.652;-2.730;2024-03-17T09:43:45;16.50;99.90
81192;DHT22;70665;47.652;-2.730;2024-03-17T09:46:12;16.40;99.90
81192;DHT22;70665;47.652;-2.730;2024-03-17T09:48:39;16.40;99.90
81192;DHT22;70665;47.652;-2.730;2024-03-17T09:51:04;16.40;99.90
81192;DHT22;70665;47.652;-2.730;2024-03-17T09:53:33;16.50;99.90
81192;DHT22;70665;47.652;-2.730;2024-03-17T09:56:10;16.50;99.90
81192;DHT22;70665;47.652;-2.730;2024-03-17T09:58:37;16.60;99.90
81192;DHT22;70665;47.652;-2.730;2024-03-17T10:01:02;16.50;99.90
81192;DHT22;70665;47.652;-2.730;2024-03-17T10:03:51;16.40;99.90
81192;DHT22;70665;47.652;-2.730;2024-03-17T10:06:21;16.20;99.90
81192;DHT22;70665;47.652;-2.730;2024-03-17T10:08:48;16.20;99.90
81192;DHT22;70665;47.652;-2.730;2024-03-17T10:11:15;16.30;99.90
81192;DHT22;70665;47.652;-2.730;2024-03-17T10:13:42;16.50;99.90
81192;DHT22;70665;47.652;-2.730;2024-03-17T10:16:24;16.70;99.90
81192;DHT22;70665;47.652;-2.730;2024-03-17T10:18:50;16.70;99.90
81192;DHT22;70665;47.652;-2.730;2024-03-17T10:21:26;16.50;99.90
81192;DHT22;70665;47.652;-2.730;2024-03-17T10:26:44;16.40;99.90
81192;DHT22;70665;47.652;-2.730;2024-03-17T10:29:21;16.30;99.90
81192;DHT22;70665;47.652;-2.730;2024-03-17T10:32:01;16.30;99.90
81192;DHT22;70665;47.652;-2.730;2024-03-17T10:34:29;16.30;99.90
81192;DHT22;70665;47.652;-2.730;2024-03-17T10:37:20;16.30;99.90
81192;DHT22;70665;47.652;-2.730;2024-03-17T10:39:51;16.20;99.90
81192;DHT22;70665;47.652;-2.730;2024-03-17T10:42:25;16.10;99.90
81192;DHT22;70665;47.652;-2.730;2024-03-17T10:44:51;16.00;99.90
81192;DHT22;70665;47.652;-2.730;2024-03-17T10:47:24;16.00;99.90
81192;DHT22;70665;47.652;-2.730;2024-03-17T10:49:51;16.10;99.90
81192;DHT22;70665;47.652;-2.730;2024-03-17T10:52:18;16.30;99.90
81192;DHT22;70665;47.652;-2.730;2024-03-17T10:54:48;16.60;99.90
81192;DHT22;70665;47.652;-2.730;2024-03-17T10:59:49;16.70;99.90
81192;DHT22;70665;47.652;-2.730;2024-03-17T11:04:44;16.80;99.90
81192;DHT22;70665;47.652;-2.730;2024-03-17T11:07:16;17.00;99.90
81192;DHT22;70665;47.652;-2.730;2024-03-17T11:09:43;17.00;99.90
81192;DHT22;70665;47.652;-2.730;2024-03-17T11:17:49;17.10;99.90
81192;DHT22;70665;47.652;-2.730;2024-03-17T11:20:24;17.20;99.90
81192;DHT22;70665;47.652;-2.730;2024-03-17T11:22:52;17.30;99.90
81192;DHT22;70665;47.652;-2.730;2024-03-17T11:28:02;17.30;99.90
81192;DHT22;70665;47.652;-2.730;2024-03-17T11:35:51;17.80;99.90
81192;DHT22;70665;47.652;-2.730;2024-03-17T11:47:00;18.00;99.90
81192;DHT22;70665;47.652;-2.730;2024-03-17T11:49:31;18.60;99.90
81192;DHT22;70665;47.652;-2.730;2024-03-17T11:52:01;18.80;99.90
81192;DHT22;70665;47.652;-2.730;2024-03-17T11:54:33;18.30;99.90
81192;DHT22;70665;47.652;-2.730;2024-03-17T11:57:10;18.00;99.90
81192;DHT22;70665;47.652;-2.730;2024-03-17T11:59:36;17.80;99.90
81192;DHT22;70665;47.652;-2.730;2024-03-17T12:02:24;17.70;99.90
81192;DHT22;70665;47.652;-2.730;2024-03-17T12:04:57;18.10;99.90
81192;DHT22;70665;47.652;-2.730;2024-03-17T12:07:23;18.40;99.90
81192;DHT22;70665;47.652;-2.730;2024-03-17T12:09:52;18.70;99.90
81192;DHT22;70665;47.652;-2.730;2024-03-17T12:12:26;18.80;99.90
81192;DHT22;70665;47.652;-2.730;2024-03-17T12:15:15;18.90;99.90
81192;DHT22;70665;47.652;-2.730;2024-03-17T12:17:41;18.90;99.90
81192;DHT22;70665;47.652;-2.730;2024-03-17T12:20:19;19.10;99.90
81192;DHT22;70665;47.652;-2.730;2024-03-17T12:22:45;19.40;99.90
81192;DHT22;70665;47.652;-2.730;2024-03-17T12:25:19;19.40;99.90
81192;DHT22;70665;47.652;-2.730;2024-03-17T12:27:46;19.60;99.90
81192;DHT22;70665;47.652;-2.730;2024-03-17T12:30:14;19.50;99.90
81192;DHT22;70665;47.652;-2.730;2024-03-17T12:32:41;19.30;99.90
81192;DHT22;70665;47.652;-2.730;2024-03-17T12:35:13;19.10;99.90
81192;DHT22;70665;47.652;-2.730;2024-03-17T12:37:39;19.20;99.90
81192;DHT22;70665;47.652;-2.730;2024-03-17T12:40:18;19.10;99.90
81192;DHT22;70665;47.652;-2.730;2024-03-17T12:42:48;19.00;99.90
81192;DHT22;70665;47.652;-2.730;2024-03-17T12:45:19;18.60;99.90
81192;DHT22;70665;47.652;-2.730;2024-03-17T12:47:50;18.20;99.90
81192;DHT22;70665;47.652;-2.730;2024-03-17T12:50:16;17.80;99.90
81192;DHT22;70665;47.652;-2.730;2024-03-17T12:52:52;17.90;99.90
81192;DHT22;70665;47.652;-2.730;2024-03-17T12:55:21;17.80;99.90
81192;DHT22;70665;47.652;-2.730;2024-03-17T12:58:07;17.70;99.90
81192;DHT22;70665;47.652;-2.730;2024-03-17T13:01:04;17.50;99.90
81192;DHT22;70665;47.652;-2.730;2024-03-17T13:03:33;17.30;99.90
81192;DHT22;70665;47.652;-2.730;2024-03-17T13:06:06;17.00;99.90
81192;DHT22;70665;47.652;-2.730;2024-03-17T13:08:34;17.10;99.90
81192;DHT22;70665;47.652;-2.730;2024-03-17T13:11:00;17.30;99.90
81192;DHT22;70665;47.652;-2.730;2024-03-17T13:13:29;17.20;99.90
81192;DHT22;70665;47.652;-2.730;2024-03-17T13:15:54;17.20;99.90
81192;DHT22;70665;47.652;-2.730;2024-03-17T13:18:20;17.00;99.90
81192;DHT22;70665;47.652;-2.730;2024-03-17T13:20:47;16.90;99.90
81192;DHT22;70665;47.652;-2.730;2024-03-17T13:23:15;17.00;99.90
81192;DHT22;70665;47.652;-2.730;2024-03-17T13:25:41;16.90;99.90
81192;DHT22;70665;47.652;-2.730;2024-03-17T13:28:09;16.90;99.90
81192;DHT22;70665;47.652;-2.730;2024-03-17T13:30:35;16.70;99.90
81192;DHT22;70665;47.652;-2.730;2024-03-17T13:33:02;16.80;99.90
81192;DHT22;70665;47.652;-2.730;2024-03-17T13:35:33;16.90;99.90
81192;DHT22;70665;47.652;-2.730;2024-03-17T13:38:00;17.00;99.90
81192;DHT22;70665;47.652;-2.730;2024-03-17T13:40:28;16.90;99.90
81192;DHT22;70665;47.652;-2.730;2024-03-17T13:42:55;16.80;99.90
81192;DHT22;70665;47.652;-2.730;2024-03-17T13:45:23;16.90;99.90
81192;DHT22;70665;47.652;-2.730;2024-03-17T13:47:58;17.10;99.90
81192;DHT22;70665;47.652;-2.730;2024-03-17T13:50:25;17.20;99.90
81192;DHT22;70665;47.652;-2.730;2024-03-17T13:52:50;17.00;99.90
81192;DHT22;70665;47.652;-2.730;2024-03-17T13:55:20;17.00;99.90
81192;DHT22;70665;47.652;-2.730;2024-03-17T13:57:50;16.80;99.90
81192;DHT22;70665;47.652;-2.730;2024-03-17T14:00:28;16.80;99.90
81192;DHT22;70665;47.652;-2.730;2024-03-17T14:02:54;16.80;99.90
81192;DHT22;70665;47.652;-2.730;2024-03-17T14:05:22;16.90;99.90
81192;DHT22;70665;47.652;-2.730;2024-03-17T14:07:48;17.00;99.90
81192;DHT22;70665;47.652;-2.730;2024-03-17T14:10:18;17.10;99.90
81192;DHT22;70665;47.652;-2.730;2024-03-17T14:12:44;17.20;99.90
81192;DHT22;70665;47.652;-2.730;2024-03-17T14:15:11;17.30;99.90
81192;DHT22;70665;47.652;-2.730;2024-03-17T14:17:38;17.30;99.90
81192;DHT22;70665;47.652;-2.730;2024-03-17T14:20:05;17.40;99.90
81192;DHT22;70665;47.652;-2.730;2024-03-17T14:22:36;17.60;99.90
81192;DHT22;70665;47.652;-2.730;2024-03-17T14:25:02;17.70;99.90
81192;DHT22;70665;47.652;-2.730;2024-03-17T14:27:28;17.70;99.90
81192;DHT22;70665;47.652;-2.730;2024-03-17T14:29:53;17.70;99.90
81192;DHT22;70665;47.652;-2.730;2024-03-17T14:32:19;17.80;99.90
81192;DHT22;70665;47.652;-2.730;2024-03-17T14:34:46;17.60;99.90
81192;DHT22;70665;47.652;-2.730;2024-03-17T14:37:12;17.50;99.90
81192;DHT22;70665;47.652;-2.730;2024-03-17T14:39:39;17.20;99.90
81192;DHT22;70665;47.652;-2.730;2024-03-17T14:42:05;17.20;99.90
81192;DHT22;70665;47.652;-2.730;2024-03-17T14:44:31;17.10;99.90
81192;DHT22;70665;47.652;-2.730;2024-03-17T14:46:59;17.10;99.90
81192;DHT22;70665;47.652;-2.730;2024-03-17T14:49:24;17.10;99.90
81192;DHT22;70665;47.652;-2.730;2024-03-17T14:51:50;17.10;99.90
81192;DHT22;70665;47.652;-2.730;2024-03-17T14:54:15;17.20;99.90
81192;DHT22;70665;47.652;-2.730;2024-03-17T14:56:42;17.10;99.90
81192;DHT22;70665;47.652;-2.730;2024-03-17T14:59:07;17.10;99.90
81192;DHT22;70665;47.652;-2.730;2024-03-17T15:01:34;17.00;99.90
81192;DHT22;70665;47.652;-2.730;2024-03-17T15:03:59;17.00;99.90
81192;DHT22;70665;47.652;-2.730;2024-03-17T15:06:25;17.10;99.90
81192;DHT22;70665;47.652;-2.730;2024-03-17T15:08:52;17.00;99.90
81192;DHT22;70665;47.652;-2.730;2024-03-17T15:11:18;17.10;99.90
81192;DHT22;70665;47.652;-2.730;2024-03-17T15:13:44;17.10;99.90
81192;DHT22;70665;47.652;-2.730;2024-03-17T15:16:10;16.90;99.90
81192;DHT22;70665;47.652;-2.730;2024-03-17T15:18:37;16.90;99.90
81192;DHT22;70665;47.652;-2.730;2024-03-17T15:21:03;17.00;99.90
81192;DHT22;70665;47.652;-2.730;2024-03-17T15:23:32;17.00;99.90
81192;DHT22;70665;47.652;-2.730;2024-03-17T15:26:01;16.90;99.90
81192;DHT22;70665;47.652;-2.730;2024-03-17T15:28:32;16.80;99.90
81192;DHT22;70665;47.652;-2.730;2024-03-17T15:30:59;16.80;99.90
81192;DHT22;70665;47.652;-2.730;2024-03-17T15:33:26;17.00;99.90
81192;DHT22;70665;47.652;-2.730;2024-03-17T15:35:51;17.30;99.90
81192;DHT22;70665;47.652;-2.730;2024-03-17T15:38:17;17.20;99.90
81192;DHT22;70665;47.652;-2.730;2024-03-17T15:40:43;17.20;99.90
81192;DHT22;70665;47.652;-2.730;2024-03-17T15:43:09;17.30;99.90
81192;DHT22;70665;47.652;-2.730;2024-03-17T15:45:35;17.50;99.90
81192;DHT22;70665;47.652;-2.730;2024-03-17T15:48:04;17.60;99.90
81192;DHT22;70665;47.652;-2.730;2024-03-17T15:50:29;17.50;99.90
81192;DHT22;70665;47.652;-2.730;2024-03-17T15:52:56;17.70;99.90